sensor_id;sensor_type;location;lat;lon;timestamp;pressure;altitude;pressure_sealevel;temperature
65316;BMP280;51920;53.952;10.292;2022-07-23T00:00:47;101373.03;;;14.68
65316;BMP280;51920;53.952;10.292;2022-07-23T00:03:13;101382.38;;;14.67
65316;BMP280;51920;53.952;10.292;2022-07-23T00:05:39;101385.50;;;14.69
65316;BMP280;51920;53.952;10.292;2022-07-23T00:08:05;101380.44;;;14.68
65316;BMP280;51920;53.952;10.292;2022-07-23T00:10:31;101378.09;;;14.70
65316;BMP280;51920;53.952;10.292;2022-07-23T00:12:56;101365.66;;;14.65
65316;BMP280;51920;53.952;10.292;2022-07-23T00:15:22;101376.97;;;14.60
65316;BMP280;51920;53.952;10.292;2022-07-23T00:17:47;101373.44;;;14.56
65316;BMP280;51920;53.952;10.292;2022-07-23T00:20:12;101372.28;;;14.57
65316;BMP280;51920;53.952;10.292;2022-07-23T00:22:52;101381.59;;;14.56
65316;BMP280;51920;53.952;10.292;2022-07-23T00:25:19;101386.69;;;14.54
65316;BMP280;51920;53.952;10.292;2022-07-23T00:27:45;101383.97;;;14.54
65316;BMP280;51920;53.952;10.292;2022-07-23T00:30:11;101372.28;;;14.53
65316;BMP280;51920;53.952;10.292;2022-07-23T00:32:52;101371.50;;;14.56
65316;BMP280;51920;53.952;10.292;2022-07-23T00:35:21;101367.63;;;14.54
65316;BMP280;51920;53.952;10.292;2022-07-23T00:37:47;101363.72;;;14.55
65316;BMP280;51920;53.952;10.292;2022-07-23T00:40:13;101358.66;;;14.57
65316;BMP280;51920;53.952;10.292;2022-07-23T00:42:39;101354.34;;;14.56
65316;BMP280;51920;53.952;10.292;2022-07-23T00:45:05;101359.81;;;14.56
65316;BMP280;51920;53.952;10.292;2022-07-23T00:47:31;101362.94;;;14.58
65316;BMP280;51920;53.952;10.292;2022-07-23T00:49:56;101361.00;;;14.58
65316;BMP280;51920;53.952;10.292;2022-07-23T00:52:22;101349.31;;;14.58
65316;BMP280;51920;53.952;10.292;2022-07-23T00:54:48;101360.97;;;14.62
65316;BMP280;51920;53.952;10.292;2022-07-23T00:57:13;101359.03;;;14.66
65316;BMP280;51920;53.952;10.292;2022-07-23T00:59:39;101367.56;;;14.68
65316;BMP280;51920;53.952;10.292;2022-07-23T01:02:05;101360.56;;;14.67
65316;BMP280;51920;53.952;10.292;2022-07-23T01:04:30;101369.16;;;14.69
65316;BMP280;51920;53.952;10.292;2022-07-23T01:06:56;101355.50;;;14.69
65316;BMP280;51920;53.952;10.292;2022-07-23T01:09:22;101359.81;;;14.70
65316;BMP280;51920;53.952;10.292;2022-07-23T01:11:47;101349.69;;;14.71
65316;BMP280;51920;53.952;10.292;2022-07-23T01:14:17;101336.03;;;14.71
65316;BMP280;51920;53.952;10.292;2022-07-23T01:16:44;101334.09;;;14.71
65316;BMP280;51920;53.952;10.292;2022-07-23T01:19:11;101327.47;;;14.69
65316;BMP280;51920;53.952;10.292;2022-07-23T01:21:41;101323.19;;;14.71
65316;BMP280;51920;53.952;10.292;2022-07-23T01:24:08;101334.84;;;14.72
65316;BMP280;51920;53.952;10.292;2022-07-23T01:26:37;101321.19;;;14.75
65316;BMP280;51920;53.952;10.292;2022-07-23T01:29:03;101329.38;;;14.75
65316;BMP280;51920;53.952;10.292;2022-07-23T01:31:29;101329.41;;;14.72
65316;BMP280;51920;53.952;10.292;2022-07-23T01:33:55;101327.84;;;14.71
65316;BMP280;51920;53.952;10.292;2022-07-23T01:36:20;101329.00;;;14.70
65316;BMP280;51920;53.952;10.292;2022-07-23T01:38:46;101331.75;;;14.70
65316;BMP280;51920;53.952;10.292;2022-07-23T01:41:11;101324.75;;;14.69
65316;BMP280;51920;53.952;10.292;2022-07-23T01:43:37;101322.38;;;14.74
65316;BMP280;51920;53.952;10.292;2022-07-23T01:46:02;101327.47;;;14.72
65316;BMP280;51920;53.952;10.292;2022-07-23T01:48:34;101318.50;;;14.72
65316;BMP280;51920;53.952;10.292;2022-07-23T01:51:16;101320.81;;;14.77
65316;BMP280;51920;53.952;10.292;2022-07-23T01:53:44;101315.78;;;14.72
65316;BMP280;51920;53.952;10.292;2022-07-23T01:56:09;101318.09;;;14.77
65316;BMP280;51920;53.952;10.292;2022-07-23T01:58:34;101313.81;;;14.79
65316;BMP280;51920;53.952;10.292;2022-07-23T02:01:00;101316.16;;;14.77
65316;BMP280;51920;53.952;10.292;2022-07-23T02:03:26;101310.72;;;14.77
65316;BMP280;51920;53.952;10.292;2022-07-23T02:05:51;101305.63;;;14.76
65316;BMP280;51920;53.952;10.292;2022-07-23T02:08:17;101308.75;;;14.74
65316;BMP280;51920;53.952;10.292;2022-07-23T02:10:43;101298.25;;;14.69
65316;BMP280;51920;53.952;10.292;2022-07-23T02:13:08;101304.06;;;14.75
65316;BMP280;51920;53.952;10.292;2022-07-23T02:15:34;101306.03;;;14.74
65316;BMP280;51920;53.952;10.292;2022-07-23T02:18:00;101304.44;;;14.73
65316;BMP280;51920;53.952;10.292;2022-07-23T02:20:26;101299.81;;;14.77
65316;BMP280;51920;53.952;10.292;2022-07-23T02:22:51;101293.53;;;14.73
65316;BMP280;51920;53.952;10.292;2022-07-23T02:25:17;101292.00;;;14.76
65316;BMP280;51920;53.952;10.292;2022-07-23T02:27:42;101290.03;;;14.76
65316;BMP280;51920;53.952;10.292;2022-07-23T02:30:09;101281.88;;;14.73
65316;BMP280;51920;53.952;10.292;2022-07-23T02:32:35;101279.53;;;14.71
65316;BMP280;51920;53.952;10.292;2022-07-23T02:35:00;101279.53;;;14.68
65316;BMP280;51920;53.952;10.292;2022-07-23T02:37:26;101281.50;;;14.67
65316;BMP280;51920;53.952;10.292;2022-07-23T02:39:52;101277.59;;;14.61
65316;BMP280;51920;53.952;10.292;2022-07-23T02:42:18;101276.09;;;14.60
65316;BMP280;51920;53.952;10.292;2022-07-23T02:44:43;101274.16;;;14.53
65316;BMP280;51920;53.952;10.292;2022-07-23T02:47:09;101277.66;;;14.54
65316;BMP280;51920;53.952;10.292;2022-07-23T02:49:34;101276.88;;;14.53
65316;BMP280;51920;53.952;10.292;2022-07-23T02:52:03;101279.97;;;14.52
65316;BMP280;51920;53.952;10.292;2022-07-23T02:54:29;101284.69;;;14.48
65316;BMP280;51920;53.952;10.292;2022-07-23T02:56:54;101278.47;;;14.47
65316;BMP280;51920;53.952;10.292;2022-07-23T02:59:19;101284.28;;;14.49
65316;BMP280;51920;53.952;10.292;2022-07-23T03:01:46;101280.00;;;14.48
65316;BMP280;51920;53.952;10.292;2022-07-23T03:04:12;101284.28;;;14.49
65316;BMP280;51920;53.952;10.292;2022-07-23T03:06:37;101288.16;;;14.52
65316;BMP280;51920;53.952;10.292;2022-07-23T03:09:05;101284.28;;;14.53
65316;BMP280;51920;53.952;10.292;2022-07-23T03:11:31;101281.16;;;14.51
65316;BMP280;51920;53.952;10.292;2022-07-23T03:13:57;101285.81;;;14.54
65316;BMP280;51920;53.952;10.292;2022-07-23T03:16:22;101284.66;;;14.55
65316;BMP280;51920;53.952;10.292;2022-07-23T03:18:49;101288.91;;;14.56
65316;BMP280;51920;53.952;10.292;2022-07-23T03:21:14;101282.69;;;14.59
65316;BMP280;51920;53.952;10.292;2022-07-23T03:23:40;101277.25;;;14.59
65316;BMP280;51920;53.952;10.292;2022-07-23T03:26:06;101270.63;;;14.60
65316;BMP280;51920;53.952;10.292;2022-07-23T03:28:31;101270.25;;;14.58
65316;BMP280;51920;53.952;10.292;2022-07-23T03:30:57;101269.06;;;14.59
65316;BMP280;51920;53.952;10.292;2022-07-23T03:33:23;101273.75;;;14.51
65316;BMP280;51920;53.952;10.292;2022-07-23T03:35:49;101277.28;;;14.45
65316;BMP280;51920;53.952;10.292;2022-07-23T03:38:24;101274.19;;;14.43
65316;BMP280;51920;53.952;10.292;2022-07-23T03:40:49;101271.81;;;14.45
65316;BMP280;51920;53.952;10.292;2022-07-23T03:43:15;101270.66;;;14.46
65316;BMP280;51920;53.952;10.292;2022-07-23T03:45:40;101266.38;;;14.45
65316;BMP280;51920;53.952;10.292;2022-07-23T03:48:07;101268.69;;;14.50
65316;BMP280;51920;53.952;10.292;2022-07-23T03:50:32;101274.94;;;14.47
65316;BMP280;51920;53.952;10.292;2022-07-23T03:52:58;101269.06;;;14.52
65316;BMP280;51920;53.952;10.292;2022-07-23T03:55:23;101263.22;;;14.57
65316;BMP280;51920;53.952;10.292;2022-07-23T03:57:48;101254.69;;;14.55
65316;BMP280;51920;53.952;10.292;2022-07-23T04:00:14;101267.88;;;14.67
65316;BMP280;51920;53.952;10.292;2022-07-23T04:02:41;101273.28;;;14.74
65316;BMP280;51920;53.952;10.292;2022-07-23T04:05:08;101262.78;;;14.76
65316;BMP280;51920;53.952;10.292;2022-07-23T04:07:33;101255.34;;;14.84
65316;BMP280;51920;53.952;10.292;2022-07-23T04:09:59;101252.19;;;14.86
65316;BMP280;51920;53.952;10.292;2022-07-23T04:12:24;101256.50;;;14.90
65316;BMP280;51920;53.952;10.292;2022-07-23T04:14:52;101256.09;;;14.95
65316;BMP280;51920;53.952;10.292;2022-07-23T04:17:17;101254.06;;;15.03
65316;BMP280;51920;53.952;10.292;2022-07-23T04:19:43;101237.38;;;14.94
65316;BMP280;51920;53.952;10.292;2022-07-23T04:22:10;101262.97;;;15.14
65316;BMP280;51920;53.952;10.292;2022-07-23T04:24:36;101245.13;;;15.06
65316;BMP280;51920;53.952;10.292;2022-07-23T04:27:02;101273.81;;;15.29
65316;BMP280;51920;53.952;10.292;2022-07-23T04:29:28;101285.16;;;15.31
65316;BMP280;51920;53.952;10.292;2022-07-23T04:31:53;101281.59;;;15.34
65316;BMP280;51920;53.952;10.292;2022-07-23T04:34:19;101290.53;;;15.41
65316;BMP280;51920;53.952;10.292;2022-07-23T04:36:44;101288.50;;;15.49
65316;BMP280;51920;53.952;10.292;2022-07-23T04:39:10;101282.31;;;15.48
65316;BMP280;51920;53.952;10.292;2022-07-23T04:41:35;101286.94;;;15.52
65316;BMP280;51920;53.952;10.292;2022-07-23T04:44:01;101284.56;;;15.57
65316;BMP280;51920;53.952;10.292;2022-07-23T04:46:27;101287.69;;;15.56
65316;BMP280;51920;53.952;10.292;2022-07-23T04:48:54;101292.31;;;15.66
65316;BMP280;51920;53.952;10.292;2022-07-23T04:51:20;101283.69;;;15.67
65316;BMP280;51920;53.952;10.292;2022-07-23T04:53:45;101283.31;;;15.69
65316;BMP280;51920;53.952;10.292;2022-07-23T04:56:11;101297.72;;;15.73
65316;BMP280;51920;53.952;10.292;2022-07-23T04:58:36;101289.97;;;15.68
65316;BMP280;51920;53.952;10.292;2022-07-23T05:01:02;101293.06;;;15.70
65316;BMP280;51920;53.952;10.292;2022-07-23T05:03:32;101295.34;;;15.79
65316;BMP280;51920;53.952;10.292;2022-07-23T05:05:57;101292.25;;;15.77
65316;BMP280;51920;53.952;10.292;2022-07-23T05:08:23;101295.72;;;15.81
65316;BMP280;51920;53.952;10.292;2022-07-23T05:10:52;101281.31;;;15.77
65316;BMP280;51920;53.952;10.292;2022-07-23T05:13:18;101285.22;;;15.72
65316;BMP280;51920;53.952;10.292;2022-07-23T05:15:44;101284.78;;;15.81
65316;BMP280;51920;53.952;10.292;2022-07-23T05:18:10;101268.44;;;15.74
65316;BMP280;51920;53.952;10.292;2022-07-23T05:20:36;101276.25;;;15.75
65316;BMP280;51920;53.952;10.292;2022-07-23T05:23:02;101267.31;;;15.67
65316;BMP280;51920;53.952;10.292;2022-07-23T05:25:28;101277.75;;;15.80
65316;BMP280;51920;53.952;10.292;2022-07-23T05:27:53;101277.41;;;15.74
65316;BMP280;51920;53.952;10.292;2022-07-23T05:30:19;101280.53;;;15.76
65316;BMP280;51920;53.952;10.292;2022-07-23T05:32:46;101268.06;;;15.72
65316;BMP280;51920;53.952;10.292;2022-07-23T05:35:15;101292.25;;;15.77
65316;BMP280;51920;53.952;10.292;2022-07-23T05:37:46;101294.56;;;15.82
65316;BMP280;51920;53.952;10.292;2022-07-23T05:40:12;101282.84;;;15.78
65316;BMP280;51920;53.952;10.292;2022-07-23T05:42:39;101292.25;;;15.77
65316;BMP280;51920;53.952;10.292;2022-07-23T05:45:06;101294.56;;;15.78
65316;BMP280;51920;53.952;10.292;2022-07-23T05:47:45;101294.97;;;15.77
65316;BMP280;51920;53.952;10.292;2022-07-23T05:50:13;101300.84;;;15.72
65316;BMP280;51920;53.952;10.292;2022-07-23T05:52:43;101303.97;;;15.74
65316;BMP280;51920;53.952;10.292;2022-07-23T05:55:28;101297.78;;;15.66
65316;BMP280;51920;53.952;10.292;2022-07-23T05:57:57;101304.06;;;15.59
65316;BMP280;51920;53.952;10.292;2022-07-23T06:00:22;101304.84;;;15.56
65316;BMP280;51920;53.952;10.292;2022-07-23T06:02:48;101299.00;;;15.58
65316;BMP280;51920;53.952;10.292;2022-07-23T06:05:15;101286.94;;;15.55
65316;BMP280;51920;53.952;10.292;2022-07-23T06:07:42;101310.25;;;15.67
65316;BMP280;51920;53.952;10.292;2022-07-23T06:10:08;101308.28;;;15.71
65316;BMP280;51920;53.952;10.292;2022-07-23T06:12:34;101314.56;;;15.64
65316;BMP280;51920;53.952;10.292;2022-07-23T06:15:00;101318.09;;;15.65
65316;BMP280;51920;53.952;10.292;2022-07-23T06:17:26;101305.91;;;15.73
65316;BMP280;51920;53.952;10.292;2022-07-23T06:19:52;101308.31;;;15.64
65316;BMP280;51920;53.952;10.292;2022-07-23T06:22:18;101313.78;;;15.60
65316;BMP280;51920;53.952;10.292;2022-07-23T06:24:45;101305.28;;;15.51
65316;BMP280;51920;53.952;10.292;2022-07-23T06:27:10;101315.81;;;15.49
65316;BMP280;51920;53.952;10.292;2022-07-23T06:29:36;101320.47;;;15.56
65316;BMP280;51920;53.952;10.292;2022-07-23T06:32:01;101323.63;;;15.54
65316;BMP280;51920;53.952;10.292;2022-07-23T06:34:27;101311.97;;;15.46
65316;BMP280;51920;53.952;10.292;2022-07-23T06:36:54;101304.19;;;15.41
65316;BMP280;51920;53.952;10.292;2022-07-23T06:39:20;101306.53;;;15.43
65316;BMP280;51920;53.952;10.292;2022-07-23T06:41:47;101301.78;;;15.54
65316;BMP280;51920;53.952;10.292;2022-07-23T06:44:12;101312.63;;;15.61
65316;BMP280;51920;53.952;10.292;2022-07-23T06:46:40;101300.97;;;15.57
65316;BMP280;51920;53.952;10.292;2022-07-23T06:49:05;101313.28;;;15.80
65316;BMP280;51920;53.952;10.292;2022-07-23T06:51:31;101309.63;;;15.97
65316;BMP280;51920;53.952;10.292;2022-07-23T06:53:56;101287.44;;;15.88
65316;BMP280;51920;53.952;10.292;2022-07-23T06:56:21;101309.06;;;16.17
65316;BMP280;51920;53.952;10.292;2022-07-23T06:58:47;101279.00;;;16.17
65316;BMP280;51920;53.952;10.292;2022-07-23T07:01:13;101308.00;;;16.45
65316;BMP280;51920;53.952;10.292;2022-07-23T07:03:40;101307.88;;;16.55
65316;BMP280;51920;53.952;10.292;2022-07-23T07:06:05;101315.66;;;16.61
65316;BMP280;51920;53.952;10.292;2022-07-23T07:08:30;101314.00;;;16.70
65316;BMP280;51920;53.952;10.292;2022-07-23T07:10:56;101311.84;;;16.85
65316;BMP280;51920;53.952;10.292;2022-07-23T07:13:21;101315.78;;;16.84
65316;BMP280;51920;53.952;10.292;2022-07-23T07:15:47;101310.94;;;16.95
65316;BMP280;51920;53.952;10.292;2022-07-23T07:18:12;101310.31;;;17.15
65316;BMP280;51920;53.952;10.292;2022-07-23T07:20:38;101319.28;;;17.42
65316;BMP280;51920;53.952;10.292;2022-07-23T07:23:03;101309.44;;;17.49
65316;BMP280;51920;53.952;10.292;2022-07-23T07:25:28;101335.31;;;17.71
65316;BMP280;51920;53.952;10.292;2022-07-23T07:27:54;101323.03;;;17.79
65316;BMP280;51920;53.952;10.292;2022-07-23T07:30:20;101330.00;;;17.84
65316;BMP280;51920;53.952;10.292;2022-07-23T07:32:45;101327.50;;;17.93
65316;BMP280;51920;53.952;10.292;2022-07-23T07:35:11;101339.22;;;18.17
65316;BMP280;51920;53.952;10.292;2022-07-23T07:37:36;101338.44;;;18.17
65316;BMP280;51920;53.952;10.292;2022-07-23T07:40:02;101349.69;;;18.22
65316;BMP280;51920;53.952;10.292;2022-07-23T07:42:28;101332.72;;;18.07
65316;BMP280;51920;53.952;10.292;2022-07-23T07:44:53;101340.63;;;18.25
65316;BMP280;51920;53.952;10.292;2022-07-23T07:47:18;101329.25;;;18.47
65316;BMP280;51920;53.952;10.292;2022-07-23T07:49:44;101332.81;;;18.67
65316;BMP280;51920;53.952;10.292;2022-07-23T07:52:10;101341.97;;;18.97
65316;BMP280;51920;53.952;10.292;2022-07-23T07:54:36;101347.53;;;19.13
65316;BMP280;51920;53.952;10.292;2022-07-23T07:57:02;101331.31;;;19.35
65316;BMP280;51920;53.952;10.292;2022-07-23T07:59:28;101327.97;;;19.44
65316;BMP280;51920;53.952;10.292;2022-07-23T08:01:53;101329.47;;;19.12
65316;BMP280;51920;53.952;10.292;2022-07-23T08:04:19;101339.13;;;19.69
65316;BMP280;51920;53.952;10.292;2022-07-23T08:06:44;101336.38;;;19.53
65316;BMP280;51920;53.952;10.292;2022-07-23T08:09:10;101330.00;;;19.89
65316;BMP280;51920;53.952;10.292;2022-07-23T08:11:35;101322.91;;;20.21
65316;BMP280;51920;53.952;10.292;2022-07-23T08:14:01;101327.59;;;20.20
65316;BMP280;51920;53.952;10.292;2022-07-23T08:16:26;101333.91;;;20.04
65316;BMP280;51920;53.952;10.292;2022-07-23T08:18:52;101326.75;;;19.61
65316;BMP280;51920;53.952;10.292;2022-07-23T08:21:17;101328.19;;;19.82
65316;BMP280;51920;53.952;10.292;2022-07-23T08:23:42;101322.28;;;19.35
65316;BMP280;51920;53.952;10.292;2022-07-23T08:26:08;101322.66;;;19.37
65316;BMP280;51920;53.952;10.292;2022-07-23T08:28:33;101325.88;;;18.79
65316;BMP280;51920;53.952;10.292;2022-07-23T08:30:59;101316.94;;;18.75
65316;BMP280;51920;53.952;10.292;2022-07-23T08:33:24;101322.94;;;18.90
65316;BMP280;51920;53.952;10.292;2022-07-23T08:35:50;101326.66;;;18.79
65316;BMP280;51920;53.952;10.292;2022-07-23T08:38:20;101326.81;;;18.72
65316;BMP280;51920;53.952;10.292;2022-07-23T08:40:51;101317.38;;;18.33
65316;BMP280;51920;53.952;10.292;2022-07-23T08:43:20;101324.66;;;18.44
65316;BMP280;51920;53.952;10.292;2022-07-23T08:45:49;101319.69;;;18.15
65316;BMP280;51920;53.952;10.292;2022-07-23T08:48:17;101323.25;;;18.12
65316;BMP280;51920;53.952;10.292;2022-07-23T08:50:46;101319.69;;;18.15
65316;BMP280;51920;53.952;10.292;2022-07-23T08:53:12;101326.00;;;18.12
65316;BMP280;51920;53.952;10.292;2022-07-23T08:55:38;101331.22;;;18.26
65316;BMP280;51920;53.952;10.292;2022-07-23T08:58:04;101330.09;;;18.24
65316;BMP280;51920;53.952;10.292;2022-07-23T09:00:30;101335.00;;;18.12
65316;BMP280;51920;53.952;10.292;2022-07-23T09:02:55;101333.16;;;17.82
65316;BMP280;51920;53.952;10.292;2022-07-23T09:05:21;101336.84;;;17.72
65316;BMP280;51920;53.952;10.292;2022-07-23T09:15:50;101347.56;;;17.63
65316;BMP280;51920;53.952;10.292;2022-07-23T09:18:15;101350.44;;;17.52
65316;BMP280;51920;53.952;10.292;2022-07-23T09:20:41;101343.47;;;17.47
65316;BMP280;51920;53.952;10.292;2022-07-23T09:23:06;101336.94;;;17.41
65316;BMP280;51920;53.952;10.292;2022-07-23T09:25:31;101363.34;;;17.55
65316;BMP280;51920;53.952;10.292;2022-07-23T09:27:58;101350.22;;;17.66
65316;BMP280;51920;53.952;10.292;2022-07-23T09:30:29;101345.88;;;17.69
65316;BMP280;51920;53.952;10.292;2022-07-23T09:33:10;101350.59;;;17.68
65316;BMP280;51920;53.952;10.292;2022-07-23T09:35:55;101351.91;;;18.07
65316;BMP280;51920;53.952;10.292;2022-07-23T09:38:23;101357.09;;;18.25
65316;BMP280;51920;53.952;10.292;2022-07-23T09:41:07;101363.97;;;18.57
65316;BMP280;51920;53.952;10.292;2022-07-23T09:43:32;101359.66;;;18.96
65316;BMP280;51920;53.952;10.292;2022-07-23T09:46:21;101356.34;;;19.21
65316;BMP280;51920;53.952;10.292;2022-07-23T09:48:47;101358.59;;;19.26
65316;BMP280;51920;53.952;10.292;2022-07-23T09:51:13;101354.53;;;19.14
65316;BMP280;51920;53.952;10.292;2022-07-23T09:54:02;101351.28;;;18.83
65316;BMP280;51920;53.952;10.292;2022-07-23T09:56:28;101356.28;;;18.68
65316;BMP280;51920;53.952;10.292;2022-07-23T09:58:54;101361.06;;;18.64
65316;BMP280;51920;53.952;10.292;2022-07-23T10:01:50;101358.38;;;18.41
65316;BMP280;51920;53.952;10.292;2022-07-23T10:04:16;101373.78;;;18.34
65316;BMP280;51920;53.952;10.292;2022-07-23T10:07:08;101362.81;;;18.11
65316;BMP280;51920;53.952;10.292;2022-07-23T10:09:54;101358.91;;;18.12
65316;BMP280;51920;53.952;10.292;2022-07-23T10:12:46;101360.63;;;18.02
65316;BMP280;51920;53.952;10.292;2022-07-23T10:15:30;101362.00;;;18.14
65316;BMP280;51920;53.952;10.292;2022-07-23T10:17:57;101365.44;;;18.18
65316;BMP280;51920;53.952;10.292;2022-07-23T10:20:22;101372.44;;;18.23
65316;BMP280;51920;53.952;10.292;2022-07-23T10:25:48;101380.75;;;18.39
65316;BMP280;51920;53.952;10.292;2022-07-23T10:36:20;101378.81;;;18.79
65316;BMP280;51920;53.952;10.292;2022-07-23T10:38:54;101374.06;;;19.00
65316;BMP280;51920;53.952;10.292;2022-07-23T10:41:41;101379.22;;;19.34
65316;BMP280;51920;53.952;10.292;2022-07-23T10:44:15;101372.50;;;19.55
65316;BMP280;51920;53.952;10.292;2022-07-23T10:47:00;101376.91;;;19.65
65316;BMP280;51920;53.952;10.292;2022-07-23T10:49:38;101379.81;;;20.07
65316;BMP280;51920;53.952;10.292;2022-07-23T10:57:09;101378.06;;;20.30
65316;BMP280;51920;53.952;10.292;2022-07-23T11:02:28;101384.81;;;20.12
65316;BMP280;51920;53.952;10.292;2022-07-23T11:04:53;101389.16;;;20.10
65316;BMP280;51920;53.952;10.292;2022-07-23T11:07:19;101391.34;;;20.02
65316;BMP280;51920;53.952;10.292;2022-07-23T11:09:45;101387.59;;;19.63
65316;BMP280;51920;53.952;10.292;2022-07-23T11:17:27;101396.09;;;18.36
65316;BMP280;51920;53.952;10.292;2022-07-23T11:25:11;101398.94;;;18.29
65316;BMP280;51920;53.952;10.292;2022-07-23T11:27:41;101402.56;;;18.46
65316;BMP280;51920;53.952;10.292;2022-07-23T11:30:08;101395.78;;;18.74
65316;BMP280;51920;53.952;10.292;2022-07-23T11:32:39;101393.44;;;18.93
65316;BMP280;51920;53.952;10.292;2022-07-23T11:35:26;101393.63;;;19.22
65316;BMP280;51920;53.952;10.292;2022-07-23T11:38:20;101390.84;;;19.42
65316;BMP280;51920;53.952;10.292;2022-07-23T11:40:48;101398.19;;;19.29
65316;BMP280;51920;53.952;10.292;2022-07-23T11:43:14;101401.97;;;19.35
65316;BMP280;51920;53.952;10.292;2022-07-23T11:45:52;101402.19;;;19.24
65316;BMP280;51920;53.952;10.292;2022-07-23T11:48:23;101394.31;;;19.26
65316;BMP280;51920;53.952;10.292;2022-07-23T11:50:50;101398.50;;;19.14
65316;BMP280;51920;53.952;10.292;2022-07-23T11:53:28;101404.03;;;19.11
65316;BMP280;51920;53.952;10.292;2022-07-23T11:55:54;101414.03;;;19.21
65316;BMP280;51920;53.952;10.292;2022-07-23T11:58:20;101402.66;;;18.83
65316;BMP280;51920;53.952;10.292;2022-07-23T12:00:46;101407.13;;;18.76
65316;BMP280;51920;53.952;10.292;2022-07-23T12:03:12;101402.44;;;18.73
65316;BMP280;51920;53.952;10.292;2022-07-23T12:05:39;101411.03;;;18.75
65316;BMP280;51920;53.952;10.292;2022-07-23T12:08:09;101407.16;;;18.93
65316;BMP280;51920;53.952;10.292;2022-07-23T12:10:38;101406.94;;;19.23
65316;BMP280;51920;53.952;10.292;2022-07-23T12:15:43;101402.56;;;19.42
65316;BMP280;51920;53.952;10.292;2022-07-23T12:18:12;101397.22;;;19.71
65316;BMP280;51920;53.952;10.292;2022-07-23T12:20:43;101393.41;;;19.98
65316;BMP280;51920;53.952;10.292;2022-07-23T12:23:11;101393.06;;;20.12
65316;BMP280;51920;53.952;10.292;2022-07-23T12:25:40;101391.19;;;19.93
65316;BMP280;51920;53.952;10.292;2022-07-23T12:28:10;101392.03;;;19.90
65316;BMP280;51920;53.952;10.292;2022-07-23T12:30:50;101395.81;;;20.12
65316;BMP280;51920;53.952;10.292;2022-07-23T12:33:29;101389.59;;;20.25
65316;BMP280;51920;53.952;10.292;2022-07-23T12:35:59;101395.72;;;20.16
65316;BMP280;51920;53.952;10.292;2022-07-23T12:38:27;101395.19;;;20.21
65316;BMP280;51920;53.952;10.292;2022-07-23T12:40:55;101403.97;;;20.16
65316;BMP280;51920;53.952;10.292;2022-07-23T12:43:30;101406.97;;;20.05
65316;BMP280;51920;53.952;10.292;2022-07-23T12:48:39;101407.50;;;20.00
65316;BMP280;51920;53.952;10.292;2022-07-23T12:51:15;101412.31;;;20.12
65316;BMP280;51920;53.952;10.292;2022-07-23T12:53:41;101417.66;;;20.03
65316;BMP280;51920;53.952;10.292;2022-07-23T12:56:11;101425.47;;;20.05
65316;BMP280;51920;53.952;10.292;2022-07-23T13:01:33;101415.44;;;19.82
65316;BMP280;51920;53.952;10.292;2022-07-23T13:04:05;101424.19;;;19.93
65316;BMP280;51920;53.952;10.292;2022-07-23T13:09:06;101419.97;;;20.05
65316;BMP280;51920;53.952;10.292;2022-07-23T13:11:32;101425.88;;;19.87
65316;BMP280;51920;53.952;10.292;2022-07-23T13:13:58;101428.38;;;20.14
65316;BMP280;51920;53.952;10.292;2022-07-23T13:16:26;101425.41;;;20.08
65316;BMP280;51920;53.952;10.292;2022-07-23T13:18:52;101432.16;;;20.20
65316;BMP280;51920;53.952;10.292;2022-07-23T13:21:17;101428.22;;;20.21
65316;BMP280;51920;53.952;10.292;2022-07-23T13:23:43;101435.94;;;19.93
65316;BMP280;51920;53.952;10.292;2022-07-23T13:26:08;101436.94;;;20.32
65316;BMP280;51920;53.952;10.292;2022-07-23T13:28:34;101429.34;;;20.07
65316;BMP280;51920;53.952;10.292;2022-07-23T13:30:59;101432.78;;;20.40
65316;BMP280;51920;53.952;10.292;2022-07-23T13:33:25;101440.28;;;20.40
65316;BMP280;51920;53.952;10.292;2022-07-23T13:35:52;101443.28;;;20.46
65316;BMP280;51920;53.952;10.292;2022-07-23T13:38:19;101435.66;;;20.37
65316;BMP280;51920;53.952;10.292;2022-07-23T13:40:46;101441.44;;;20.55
65316;BMP280;51920;53.952;10.292;2022-07-23T13:43:16;101440.16;;;20.14
65316;BMP280;51920;53.952;10.292;2022-07-23T13:45:42;101443.91;;;20.04
65316;BMP280;51920;53.952;10.292;2022-07-23T13:48:08;101443.09;;;20.07
65316;BMP280;51920;53.952;10.292;2022-07-23T13:50:34;101450.38;;;19.81
65316;BMP280;51920;53.952;10.292;2022-07-23T13:53:21;101449.59;;;19.48
65316;BMP280;51920;53.952;10.292;2022-07-23T13:55:48;101456.78;;;19.42
65316;BMP280;51920;53.952;10.292;2022-07-23T13:58:14;101451.50;;;19.31
65316;BMP280;51920;53.952;10.292;2022-07-23T14:00:43;101448.34;;;19.33
65316;BMP280;51920;53.952;10.292;2022-07-23T14:03:09;101448.00;;;19.31
65316;BMP280;51920;53.952;10.292;2022-07-23T14:05:35;101450.34;;;19.32
65316;BMP280;51920;53.952;10.292;2022-07-23T14:08:00;101453.38;;;19.54
65316;BMP280;51920;53.952;10.292;2022-07-23T14:10:26;101449.94;;;19.83
65316;BMP280;51920;53.952;10.292;2022-07-23T14:12:52;101454.16;;;19.87
65316;BMP280;51920;53.952;10.292;2022-07-23T14:15:18;101449.69;;;19.93
65316;BMP280;51920;53.952;10.292;2022-07-23T14:17:45;101444.28;;;19.73
65316;BMP280;51920;53.952;10.292;2022-07-23T14:20:12;101459.13;;;19.76
65316;BMP280;51920;53.952;10.292;2022-07-23T14:22:38;101447.78;;;19.58
65316;BMP280;51920;53.952;10.292;2022-07-23T14:25:05;101449.94;;;19.30
65316;BMP280;51920;53.952;10.292;2022-07-23T14:27:31;101454.97;;;19.15
65316;BMP280;51920;53.952;10.292;2022-07-23T14:29:57;101455.97;;;19.05
65316;BMP280;51920;53.952;10.292;2022-07-23T14:32:23;101461.94;;;19.00
65316;BMP280;51920;53.952;10.292;2022-07-23T14:34:49;101464.59;;;18.84